TimeEDT,TemperatureF,Dew PointF,Humidity,Sea Level PressureIn,VisibilityMPH,Wind Direction,Wind SpeedMPH,Gust SpeedMPH,PrecipitationIn,Events,Conditions,WindDirDegrees,DateUTC
12:15 AM,44.6,37.4,76,29.60,10.0,SSE,10.4,-,N/A,,Overcast,160,2013-05-16 04:15:00
12:35 AM,44.6,37.4,76,29.59,10.0,SSE,10.4,-,N/A,,Overcast,150,2013-05-16 04:35:00
12:55 AM,44.6,37.4,76,29.58,10.0,SSE,8.1,-,N/A,,Overcast,150,2013-05-16 04:55:00
1:15 AM,44.6,39.2,81,29.56,10.0,SE,10.4,-,N/A,,Overcast,140,2013-05-16 05:15:00
1:35 AM,44.6,39.2,81,29.56,10.0,SE,12.7,16.1,N/A,,Overcast,140,2013-05-16 05:35:00
1:55 AM,44.6,39.2,81,29.55,10.0,SSE,8.1,18.4,N/A,,Overcast,150,2013-05-16 05:55:00
2:15 AM,44.6,39.2,81,29.53,10.0,SSE,10.4,-,N/A,,Overcast,150,2013-05-16 06:15:00
2:35 AM,44.6,39.2,81,29.53,10.0,SSE,9.2,-,N/A,,Overcast,160,2013-05-16 06:35:00
2:55 AM,44.6,41.0,87,29.52,10.0,SSE,12.7,-,N/A,,Overcast,150,2013-05-16 06:55:00
3:15 AM,44.6,41.0,87,29.51,10.0,SSE,12.7,17.3,N/A,,Overcast,160,2013-05-16 07:15:00
3:35 AM,44.6,41.0,87,29.50,10.0,SSE,11.5,-,N/A,,Overcast,150,2013-05-16 07:35:00
3:55 AM,46.4,42.8,87,29.49,10.0,SSE,10.4,-,N/A,,Overcast,160,2013-05-16 07:55:00
4:15 AM,46.4,42.8,87,29.49,10.0,SSE,6.9,-,N/A,,Overcast,160,2013-05-16 08:15:00
4:35 AM,46.4,42.8,87,29.48,10.0,SSE,12.7,-,N/A,,Overcast,160,2013-05-16 08:35:00
4:55 AM,46.4,42.8,87,29.49,8.0,South,9.2,-,N/A,,Overcast,180,2013-05-16 08:55:00
5:15 AM,46.4,42.8,87,29.49,5.0,South,10.4,-,N/A,,Overcast,170,2013-05-16 09:15:00
5:35 AM,46.4,42.8,87,29.49,5.0,SSE,9.2,-,0.01,,Overcast,160,2013-05-16 09:35:00
5:55 AM,46.4,42.8,87,29.49,10.0,SSE,10.4,-,0.01,,Overcast,150,2013-05-16 09:55:00
6:15 AM,46.4,42.8,87,29.49,4.0,SSE,9.2,-,N/A,,Overcast,160,2013-05-16 10:15:00
6:35 AM,46.4,42.8,87,29.49,10.0,SSE,8.1,-,N/A,,Overcast,160,2013-05-16 10:35:00
6:55 AM,46.4,42.8,87,29.49,10.0,South,8.1,-,N/A,,Overcast,180,2013-05-16 10:55:00
7:15 AM,46.4,42.8,87,29.49,10.0,South,9.2,-,N/A,,Overcast,170,2013-05-16 11:15:00
7:35 AM,48.2,44.6,87,29.49,10.0,South,8.1,-,N/A,,Overcast,170,2013-05-16 11:35:00
7:55 AM,48.2,44.6,87,29.49,10.0,South,6.9,-,N/A,,Overcast,180,2013-05-16 11:55:00
8:15 AM,50.0,44.6,82,29.49,10.0,South,8.1,-,N/A,,Overcast,190,2013-05-16 12:15:00
8:35 AM,50.0,44.6,82,29.49,10.0,South,6.9,-,N/A,,Overcast,190,2013-05-16 12:35:00
8:55 AM,51.8,46.4,82,29.49,10.0,SSW,6.9,-,N/A,,Overcast,200,2013-05-16 12:55:00
9:15 AM,51.8,46.4,82,29.49,10.0,SSW,5.8,-,N/A,,Overcast,200,2013-05-16 13:15:00
9:35 AM,51.8,46.4,82,29.49,10.0,SSW,5.8,-,N/A,,Overcast,200,2013-05-16 13:35:00
9:55 AM,51.8,46.4,82,29.49,10.0,SSW,4.6,-,N/A,,Overcast,200,2013-05-16 13:55:00
10:15 AM,53.6,46.4,77,29.49,10.0,South,5.8,-,N/A,,Overcast,190,2013-05-16 14:15:00
10:35 AM,53.6,46.4,77,29.49,10.0,South,5.8,-,N/A,,Overcast,190,2013-05-16 14:35:00
10:55 AM,55.4,46.4,72,29.48,10.0,SW,4.6,-,N/A,,Overcast,230,2013-05-16 14:55:00
11:15 AM,55.4,44.6,67,29.48,10.0,WSW,5.8,-,N/A,,Overcast,240,2013-05-16 15:15:00
11:35 AM,55.4,44.6,67,29.49,10.0,SW,4.6,-,N/A,,Overcast,220,2013-05-16 15:35:00
11:55 AM,55.4,44.6,67,29.49,10.0,WSW,3.5,-,N/A,,Overcast,240,2013-05-16 15:55:00
12:15 PM,55.4,46.4,72,29.48,10.0,West,5.8,-,N/A,,Overcast,260,2013-05-16 16:15:00
12:35 PM,55.4,44.6,67,29.48,10.0,Calm,Calm,-,N/A,,Overcast,0,2013-05-16 16:35:00
12:55 PM,57.2,44.6,63,29.48,10.0,WSW,5.8,-,N/A,,Mostly Cloudy,250,2013-05-16 16:55:00
1:15 PM,57.2,42.8,59,29.48,10.0,West,6.9,-,N/A,,Overcast,280,2013-05-16 17:15:00
1:35 PM,57.2,41.0,55,29.48,10.0,WNW,6.9,-,N/A,,Overcast,290,2013-05-16 17:35:00
1:55 PM,55.4,42.8,63,29.49,10.0,West,8.1,-,N/A,,Overcast,280,2013-05-16 17:55:00
2:15 PM,53.6,46.4,77,29.50,10.0,WNW,5.8,-,0.04,,Overcast,290,2013-05-16 18:15:00
2:35 PM,55.4,46.4,72,29.49,10.0,Calm,Calm,-,0.04,,Overcast,0,2013-05-16 18:35:00
2:55 PM,55.4,46.4,72,29.48,10.0,Calm,Calm,-,N/A,,Overcast,0,2013-05-16 18:55:00
3:15 PM,55.4,44.6,67,29.48,10.0,Calm,Calm,-,N/A,,Mostly Cloudy,0,2013-05-16 19:15:00
3:35 PM,53.6,46.4,77,29.49,10.0,NW,4.6,-,0.03,,Overcast,310,2013-05-16 19:35:00
3:55 PM,53.6,46.4,77,29.52,10.0,WNW,17.3,21.9,0.10,,Overcast,290,2013-05-16 19:55:00
4:15 PM,51.8,44.6,76,29.52,10.0,WNW,12.7,19.6,N/A,,Overcast,300,2013-05-16 20:15:00
4:35 PM,51.8,44.6,76,29.53,10.0,West,5.8,-,N/A,,Overcast,280,2013-05-16 20:35:00
4:55 PM,53.6,44.6,72,29.54,10.0,West,6.9,-,N/A,,Mostly Cloudy,270,2013-05-16 20:55:00
5:15 PM,53.6,44.6,72,29.54,10.0,West,6.9,-,N/A,,Mostly Cloudy,280,2013-05-16 21:15:00
5:35 PM,53.6,46.4,77,29.54,10.0,West,9.2,-,N/A,,Mostly Cloudy,280,2013-05-16 21:35:00
5:55 PM,51.8,44.6,76,29.54,10.0,West,11.5,-,N/A,,Mostly Cloudy,270,2013-05-16 21:55:00
6:15 PM,51.8,44.6,76,29.55,10.0,West,8.1,-,N/A,,Mostly Cloudy,270,2013-05-16 22:15:00
6:35 PM,51.8,44.6,76,29.56,10.0,WNW,8.1,-,N/A,,Mostly Cloudy,290,2013-05-16 22:35:00
6:55 PM,51.8,44.6,76,29.56,9.0,WNW,5.8,-,0.01,,Overcast,300,2013-05-16 22:55:00
7:15 PM,50.0,44.6,82,29.57,10.0,WNW,8.1,-,N/A,,Overcast,290,2013-05-16 23:15:00
7:35 PM,50.0,44.6,82,29.58,10.0,NW,4.6,-,N/A,,Mostly Cloudy,320,2013-05-16 23:35:00
7:55 PM,50.0,44.6,82,29.59,10.0,WNW,6.9,-,N/A,,Overcast,300,2013-05-16 23:55:00
8:15 PM,50.0,44.6,82,29.60,10.0,North,11.5,-,N/A,,Overcast,360,2013-05-17 00:15:00
8:35 PM,48.2,42.8,82,29.61,10.0,NNW,9.2,-,N/A,,Scattered Clouds,330,2013-05-17 00:35:00
8:55 PM,48.2,41.0,76,29.63,10.0,NNW,8.1,-,N/A,,Mostly Cloudy,330,2013-05-17 00:55:00
9:15 PM,46.4,39.2,76,29.64,10.0,NNW,13.8,17.3,N/A,,Overcast,340,2013-05-17 01:15:00
9:35 PM,46.4,39.2,76,29.65,10.0,NNW,11.5,17.3,N/A,,Overcast,330,2013-05-17 01:35:00
9:55 PM,44.6,39.2,81,29.66,10.0,North,11.5,-,N/A,,Overcast,360,2013-05-17 01:55:00
10:15 PM,44.6,37.4,76,29.67,10.0,NNW,8.1,-,N/A,,Overcast,330,2013-05-17 02:15:00
10:35 PM,44.6,37.4,76,29.68,10.0,NW,9.2,-,N/A,,Overcast,320,2013-05-17 02:35:00
10:55 PM,42.8,37.4,81,29.68,10.0,NW,10.4,-,N/A,,Overcast,320,2013-05-17 02:55:00
11:15 PM,42.8,35.6,76,29.69,10.0,NNW,11.5,21.9,N/A,,Overcast,340,2013-05-17 03:15:00
11:35 PM,42.8,35.6,76,29.70,10.0,NNW,11.5,-,N/A,,Overcast,330,2013-05-17 03:35:00
11:55 PM,42.8,35.6,76,29.71,10.0,NNW,8.1,-,N/A,,Overcast,330,2013-05-17 03:55:00